sensor_id;sensor_type;location;lat;lon;timestamp;temperature;humidity
39277;DHT22;63149;48.086;-1.606;2023-02-11T06:01:55;1.20;99.90
39277;DHT22;63149;48.086;-1.606;2023-02-11T06:04:23;1.20;99.90
39277;DHT22;63149;48.086;-1.606;2023-02-11T06:06:49;1.20;99.90
39277;DHT22;63149;48.086;-1.606;2023-02-11T06:09:16;1.20;99.90
39277;DHT22;63149;48.086;-1.606;2023-02-11T06:11:43;1.10;99.90
39277;DHT22;63149;48.086;-1.606;2023-02-11T06:14:10;1.10;99.90
39277;DHT22;63149;48.086;-1.606;2023-02-11T06:16:37;1.10;99.90
39277;DHT22;63149;48.086;-1.606;2023-02-11T06:19:05;1.10;99.90
39277;DHT22;63149;48.086;-1.606;2023-02-11T06:21:32;1.10;99.90
39277;DHT22;63149;48.086;-1.606;2023-02-11T06:23:59;1.20;99.90
39277;DHT22;63149;48.086;-1.606;2023-02-11T06:26:26;1.20;99.90
39277;DHT22;63149;48.086;-1.606;2023-02-11T06:28:53;1.10;99.90
39277;DHT22;63149;48.086;-1.606;2023-02-11T06:31:20;1.10;99.90
39277;DHT22;63149;48.086;-1.606;2023-02-11T06:33:47;1.20;99.90
39277;DHT22;63149;48.086;-1.606;2023-02-11T06:36:18;1.20;99.90
39277;DHT22;63149;48.086;-1.606;2023-02-11T06:38:45;1.20;99.90
39277;DHT22;63149;48.086;-1.606;2023-02-11T06:41:14;1.20;99.90
39277;DHT22;63149;48.086;-1.606;2023-02-11T06:43:42;1.20;99.90
39277;DHT22;63149;48.086;-1.606;2023-02-11T06:46:09;1.10;99.90
39277;DHT22;63149;48.086;-1.606;2023-02-11T06:48:36;1.00;99.90
39277;DHT22;63149;48.086;-1.606;2023-02-11T06:51:04;1.00;99.90
39277;DHT22;63149;48.086;-1.606;2023-02-11T06:53:34;1.00;99.90
39277;DHT22;63149;48.086;-1.606;2023-02-11T06:56:02;0.90;99.90
39277;DHT22;63149;48.086;-1.606;2023-02-11T06:58:29;0.90;99.90
39277;DHT22;63149;48.086;-1.606;2023-02-11T07:00:57;0.90;99.90
39277;DHT22;63149;48.086;-1.606;2023-02-11T07:03:24;0.90;99.90
39277;DHT22;63149;48.086;-1.606;2023-02-11T07:05:51;1.00;99.90
39277;DHT22;63149;48.086;-1.606;2023-02-11T07:08:17;1.00;99.90
39277;DHT22;63149;48.086;-1.606;2023-02-11T07:10:46;0.90;99.90
39277;DHT22;63149;48.086;-1.606;2023-02-11T07:13:13;0.90;99.90
39277;DHT22;63149;48.086;-1.606;2023-02-11T07:15:40;1.00;99.90
39277;DHT22;63149;48.086;-1.606;2023-02-11T07:18:07;1.10;99.90
39277;DHT22;63149;48.086;-1.606;2023-02-11T07:20:34;1.10;99.90
39277;DHT22;63149;48.086;-1.606;2023-02-11T07:23:02;1.10;99.90
39277;DHT22;63149;48.086;-1.606;2023-02-11T07:25:29;1.20;99.90
39277;DHT22;63149;48.086;-1.606;2023-02-11T07:27:57;1.20;99.90
39277;DHT22;63149;48.086;-1.606;2023-02-11T07:30:24;1.20;99.90
39277;DHT22;63149;48.086;-1.606;2023-02-11T07:32:51;1.20;99.90
39277;DHT22;63149;48.086;-1.606;2023-02-11T07:35:18;1.30;99.90
39277;DHT22;63149;48.086;-1.606;2023-02-11T07:37:45;1.30;99.90
39277;DHT22;63149;48.086;-1.606;2023-02-11T07:40:12;1.30;99.90
39277;DHT22;63149;48.086;-1.606;2023-02-11T07:42:39;1.40;99.90
39277;DHT22;63149;48.086;-1.606;2023-02-11T07:45:08;1.40;99.90
39277;DHT22;63149;48.086;-1.606;2023-02-11T07:47:35;1.30;99.90
39277;DHT22;63149;48.086;-1.606;2023-02-11T07:50:03;1.30;99.90
39277;DHT22;63149;48.086;-1.606;2023-02-11T07:52:31;1.30;99.90
39277;DHT22;63149;48.086;-1.606;2023-02-11T07:54:58;1.40;99.90
39277;DHT22;63149;48.086;-1.606;2023-02-11T07:57:25;1.50;99.90
39277;DHT22;63149;48.086;-1.606;2023-02-11T07:59:52;1.50;99.90
39277;DHT22;63149;48.086;-1.606;2023-02-11T08:02:20;1.50;99.90
39277;DHT22;63149;48.086;-1.606;2023-02-11T08:04:47;1.50;99.90
39277;DHT22;63149;48.086;-1.606;2023-02-11T08:07:15;1.40;99.90
39277;DHT22;63149;48.086;-1.606;2023-02-11T08:09:42;1.40;99.90
39277;DHT22;63149;48.086;-1.606;2023-02-11T08:12:10;1.50;99.90
39277;DHT22;63149;48.086;-1.606;2023-02-11T08:14:37;1.60;99.90
39277;DHT22;63149;48.086;-1.606;2023-02-11T08:17:04;1.60;99.90
39277;DHT22;63149;48.086;-1.606;2023-02-11T08:19:32;1.70;99.90
39277;DHT22;63149;48.086;-1.606;2023-02-11T08:21:59;1.80;99.90
39277;DHT22;63149;48.086;-1.606;2023-02-11T08:24:26;1.80;99.90
39277;DHT22;63149;48.086;-1.606;2023-02-11T08:26:53;1.90;99.90
39277;DHT22;63149;48.086;-1.606;2023-02-11T08:29:20;2.00;99.90
39277;DHT22;63149;48.086;-1.606;2023-02-11T08:31:47;2.00;99.90
39277;DHT22;63149;48.086;-1.606;2023-02-11T08:36:51;2.10;99.90
39277;DHT22;63149;48.086;-1.606;2023-02-11T08:39:20;2.10;99.90
39277;DHT22;63149;48.086;-1.606;2023-02-11T08:41:49;2.00;99.90
39277;DHT22;63149;48.086;-1.606;2023-02-11T08:49:27;1.80;99.90
39277;DHT22;63149;48.086;-1.606;2023-02-11T09:02:18;1.90;99.90
39277;DHT22;63149;48.086;-1.606;2023-02-11T09:07:20;2.20;99.90
39277;DHT22;63149;48.086;-1.606;2023-02-11T09:09:47;2.20;99.90
39277;DHT22;63149;48.086;-1.606;2023-02-11T09:12:14;2.20;99.90
39277;DHT22;63149;48.086;-1.606;2023-02-11T09:14:41;2.30;99.90
39277;DHT22;63149;48.086;-1.606;2023-02-11T09:17:08;2.30;99.90
39277;DHT22;63149;48.086;-1.606;2023-02-11T09:19:37;2.40;99.90
39277;DHT22;63149;48.086;-1.606;2023-02-11T09:22:03;2.40;99.90
39277;DHT22;63149;48.086;-1.606;2023-02-11T09:24:30;2.50;99.90
39277;DHT22;63149;48.086;-1.606;2023-02-11T09:26:57;2.60;99.90
39277;DHT22;63149;48.086;-1.606;2023-02-11T09:29:24;2.70;99.90
39277;DHT22;63149;48.086;-1.606;2023-02-11T09:31:51;2.80;99.90
39277;DHT22;63149;48.086;-1.606;2023-02-11T09:34:18;2.80;99.90
39277;DHT22;63149;48.086;-1.606;2023-02-11T09:36:46;2.80;99.90
39277;DHT22;63149;48.086;-1.606;2023-02-11T09:39:16;3.00;99.90
39277;DHT22;63149;48.086;-1.606;2023-02-11T10:05:13;3.90;99.90
39277;DHT22;63149;48.086;-1.606;2023-02-11T10:07:47;3.90;99.90
39277;DHT22;63149;48.086;-1.606;2023-02-11T10:24:19;4.20;99.90
39277;DHT22;63149;48.086;-1.606;2023-02-11T10:26:47;4.20;99.90
39277;DHT22;63149;48.086;-1.606;2023-02-11T10:29:27;4.30;99.90
39277;DHT22;63149;48.086;-1.606;2023-02-11T10:31:58;4.50;99.90
39277;DHT22;63149;48.086;-1.606;2023-02-11T10:34:26;4.70;99.90
39277;DHT22;63149;48.086;-1.606;2023-02-11T10:36:53;4.90;99.90
39277;DHT22;63149;48.086;-1.606;2023-02-11T10:39:23;5.10;99.90
39277;DHT22;63149;48.086;-1.606;2023-02-11T10:41:53;5.30;99.90
39277;DHT22;63149;48.086;-1.606;2023-02-11T10:44:28;5.50;99.90
39277;DHT22;63149;48.086;-1.606;2023-02-11T10:46:56;5.80;99.90
39277;DHT22;63149;48.086;-1.606;2023-02-11T10:49:36;5.90;99.90
39277;DHT22;63149;48.086;-1.606;2023-02-11T10:52:21;6.00;99.90
39277;DHT22;63149;48.086;-1.606;2023-02-11T10:55:02;6.20;99.90
39277;DHT22;63149;48.086;-1.606;2023-02-11T10:57:35;6.50;99.90
39277;DHT22;63149;48.086;-1.606;2023-02-11T11:00:22;6.60;99.90
39277;DHT22;63149;48.086;-1.606;2023-02-11T11:02:54;6.80;99.90
39277;DHT22;63149;48.086;-1.606;2023-02-11T11:05:28;7.10;99.90
39277;DHT22;63149;48.086;-1.606;2023-02-11T11:07:58;7.40;99.90
39277;DHT22;63149;48.086;-1.606;2023-02-11T11:10:29;7.30;99.90
39277;DHT22;63149;48.086;-1.606;2023-02-11T11:12:57;7.40;99.90
39277;DHT22;63149;48.086;-1.606;2023-02-11T11:15:26;7.50;99.90
39277;DHT22;63149;48.086;-1.606;2023-02-11T11:18:11;7.60;99.90
39277;DHT22;63149;48.086;-1.606;2023-02-11T11:20:43;7.70;99.90
39277;DHT22;63149;48.086;-1.606;2023-02-11T11:23:20;7.80;99.90
39277;DHT22;63149;48.086;-1.606;2023-02-11T11:26:02;7.80;99.90
39277;DHT22;63149;48.086;-1.606;2023-02-11T11:28:34;7.90;99.90
39277;DHT22;63149;48.086;-1.606;2023-02-11T11:33:41;8.10;99.90
39277;DHT22;63149;48.086;-1.606;2023-02-11T11:36:10;8.20;99.90
39277;DHT22;63149;48.086;-1.606;2023-02-11T11:38:43;8.40;99.90
39277;DHT22;63149;48.086;-1.606;2023-02-11T11:41:22;8.40;99.90
39277;DHT22;63149;48.086;-1.606;2023-02-11T11:44:20;8.50;99.90
39277;DHT22;63149;48.086;-1.606;2023-02-11T11:46:52;8.60;99.90
39277;DHT22;63149;48.086;-1.606;2023-02-11T11:49:27;8.80;99.90
39277;DHT22;63149;48.086;-1.606;2023-02-11T11:52:10;9.00;99.90
39277;DHT22;63149;48.086;-1.606;2023-02-11T11:54:42;9.30;99.90
39277;DHT22;63149;48.086;-1.606;2023-02-11T11:57:16;9.50;99.90
39277;DHT22;63149;48.086;-1.606;2023-02-11T11:59:44;9.60;99.90
39277;DHT22;63149;48.086;-1.606;2023-02-11T12:02:32;9.50;99.90
39277;DHT22;63149;48.086;-1.606;2023-02-11T12:05:06;9.50;99.90
39277;DHT22;63149;48.086;-1.606;2023-02-11T12:07:46;9.40;99.90
39277;DHT22;63149;48.086;-1.606;2023-02-11T12:13:24;9.40;99.90
39277;DHT22;63149;48.086;-1.606;2023-02-11T12:16:04;9.50;99.90
39277;DHT22;63149;48.086;-1.606;2023-02-11T12:18:59;9.60;99.90
39277;DHT22;63149;48.086;-1.606;2023-02-11T12:21:38;9.80;99.90
39277;DHT22;63149;48.086;-1.606;2023-02-11T12:24:24;10.00;99.90
39277;DHT22;63149;48.086;-1.606;2023-02-11T12:26:59;10.00;99.90
39277;DHT22;63149;48.086;-1.606;2023-02-11T12:29:34;10.00;99.90
39277;DHT22;63149;48.086;-1.606;2023-02-11T12:32:25;10.10;99.90
39277;DHT22;63149;48.086;-1.606;2023-02-11T12:35:20;10.20;99.90
39277;DHT22;63149;48.086;-1.606;2023-02-11T12:38:16;10.40;99.90
39277;DHT22;63149;48.086;-1.606;2023-02-11T12:40:45;10.50;99.90
39277;DHT22;63149;48.086;-1.606;2023-02-11T12:43:19;10.70;99.90
39277;DHT22;63149;48.086;-1.606;2023-02-11T12:49:06;10.70;99.90
39277;DHT22;63149;48.086;-1.606;2023-02-11T12:51:44;10.90;99.90
39277;DHT22;63149;48.086;-1.606;2023-02-11T12:54:27;11.00;99.90
39277;DHT22;63149;48.086;-1.606;2023-02-11T12:56:59;11.10;99.90
39277;DHT22;63149;48.086;-1.606;2023-02-11T12:59:42;11.20;99.90
39277;DHT22;63149;48.086;-1.606;2023-02-11T13:02:17;11.20;99.90
39277;DHT22;63149;48.086;-1.606;2023-02-11T13:04:50;11.20;99.90
39277;DHT22;63149;48.086;-1.606;2023-02-11T13:07:21;11.10;99.90
39277;DHT22;63149;48.086;-1.606;2023-02-11T13:09:55;11.10;99.90
39277;DHT22;63149;48.086;-1.606;2023-02-11T13:12:24;11.10;99.90
39277;DHT22;63149;48.086;-1.606;2023-02-11T13:15:13;11.10;99.90
39277;DHT22;63149;48.086;-1.606;2023-02-11T13:17:47;11.10;99.90
39277;DHT22;63149;48.086;-1.606;2023-02-11T13:20:26;11.10;99.90
39277;DHT22;63149;48.086;-1.606;2023-02-11T13:23:00;11.20;99.90
39277;DHT22;63149;48.086;-1.606;2023-02-11T13:25:35;11.20;99.90
39277;DHT22;63149;48.086;-1.606;2023-02-11T13:28:24;11.30;99.90
39277;DHT22;63149;48.086;-1.606;2023-02-11T13:30:54;11.40;99.90
39277;DHT22;63149;48.086;-1.606;2023-02-11T13:33:33;11.30;99.90
39277;DHT22;63149;48.086;-1.606;2023-02-11T13:36:16;11.30;99.90
39277;DHT22;63149;48.086;-1.606;2023-02-11T13:38:58;11.20;99.90
39277;DHT22;63149;48.086;-1.606;2023-02-11T13:41:30;11.20;99.90
39277;DHT22;63149;48.086;-1.606;2023-02-11T13:46:56;11.00;99.90
39277;DHT22;63149;48.086;-1.606;2023-02-11T13:49:30;10.90;99.90
39277;DHT22;63149;48.086;-1.606;2023-02-11T13:51:58;10.90;99.90
39277;DHT22;63149;48.086;-1.606;2023-02-11T13:54:30;10.90;99.90
39277;DHT22;63149;48.086;-1.606;2023-02-11T13:57:21;10.90;99.90
39277;DHT22;63149;48.086;-1.606;2023-02-11T13:59:49;10.90;99.90
39277;DHT22;63149;48.086;-1.606;2023-02-11T14:02:26;11.00;99.90
39277;DHT22;63149;48.086;-1.606;2023-02-11T14:05:29;11.00;99.90
39277;DHT22;63149;48.086;-1.606;2023-02-11T14:08:22;11.10;99.90
39277;DHT22;63149;48.086;-1.606;2023-02-11T14:14:15;11.10;99.90
39277;DHT22;63149;48.086;-1.606;2023-02-11T14:19:48;11.00;99.90
39277;DHT22;63149;48.086;-1.606;2023-02-11T14:22:20;11.00;99.90
39277;DHT22;63149;48.086;-1.606;2023-02-11T14:24:51;11.00;99.90
39277;DHT22;63149;48.086;-1.606;2023-02-11T14:27:30;11.00;99.90
39277;DHT22;63149;48.086;-1.606;2023-02-11T14:30:09;11.00;99.90
39277;DHT22;63149;48.086;-1.606;2023-02-11T14:32:47;11.00;99.90
39277;DHT22;63149;48.086;-1.606;2023-02-11T14:35:25;10.90;99.90
39277;DHT22;63149;48.086;-1.606;2023-02-11T14:38:01;10.90;99.90
39277;DHT22;63149;48.086;-1.606;2023-02-11T14:40:32;11.00;99.90
39277;DHT22;63149;48.086;-1.606;2023-02-11T14:43:05;10.90;99.90
39277;DHT22;63149;48.086;-1.606;2023-02-11T14:45:37;10.90;99.90
39277;DHT22;63149;48.086;-1.606;2023-02-11T14:48:07;10.90;99.90
39277;DHT22;63149;48.086;-1.606;2023-02-11T14:50:43;10.90;99.90
39277;DHT22;63149;48.086;-1.606;2023-02-11T14:53:15;10.90;99.90
39277;DHT22;63149;48.086;-1.606;2023-02-11T14:55:45;10.90;99.90
39277;DHT22;63149;48.086;-1.606;2023-02-11T14:58:15;10.90;99.90
39277;DHT22;63149;48.086;-1.606;2023-02-11T15:00:51;10.80;99.90
39277;DHT22;63149;48.086;-1.606;2023-02-11T15:03:31;10.80;99.90
39277;DHT22;63149;48.086;-1.606;2023-02-11T15:06:02;10.80;99.90
39277;DHT22;63149;48.086;-1.606;2023-02-11T15:08:34;10.70;99.90
39277;DHT22;63149;48.086;-1.606;2023-02-11T15:11:08;10.80;99.90
39277;DHT22;63149;48.086;-1.606;2023-02-11T15:13:36;10.70;99.90
39277;DHT22;63149;48.086;-1.606;2023-02-11T15:16:05;10.70;99.90
39277;DHT22;63149;48.086;-1.606;2023-02-11T15:18:36;10.70;99.90
39277;DHT22;63149;48.086;-1.606;2023-02-11T15:21:05;10.70;99.90
39277;DHT22;63149;48.086;-1.606;2023-02-11T15:23:34;10.70;99.90
39277;DHT22;63149;48.086;-1.606;2023-02-11T15:26:02;10.70;99.90
39277;DHT22;63149;48.086;-1.606;2023-02-11T15:28:32;10.70;99.90
39277;DHT22;63149;48.086;-1.606;2023-02-11T15:31:00;10.70;99.90
39277;DHT22;63149;48.086;-1.606;2023-02-11T15:33:28;10.70;99.90
39277;DHT22;63149;48.086;-1.606;2023-02-11T15:35:57;10.70;99.90
39277;DHT22;63149;48.086;-1.606;2023-02-11T15:38:25;10.70;99.90
39277;DHT22;63149;48.086;-1.606;2023-02-11T15:40:55;10.70;99.90
39277;DHT22;63149;48.086;-1.606;2023-02-11T15:43:23;10.70;99.90
39277;DHT22;63149;48.086;-1.606;2023-02-11T15:45:57;10.70;99.90
39277;DHT22;63149;48.086;-1.606;2023-02-11T15:48:33;10.70;99.90
39277;DHT22;63149;48.086;-1.606;2023-02-11T15:51:04;10.70;99.90
39277;DHT22;63149;48.086;-1.606;2023-02-11T15:53:37;10.60;99.90
39277;DHT22;63149;48.086;-1.606;2023-02-11T15:56:12;10.60;99.90
39277;DHT22;63149;48.086;-1.606;2023-02-11T15:58:44;10.60;99.90
39277;DHT22;63149;48.086;-1.606;2023-02-11T16:01:12;10.60;99.90
39277;DHT22;63149;48.086;-1.606;2023-02-11T16:03:40;10.60;99.90
39277;DHT22;63149;48.086;-1.606;2023-02-11T16:06:15;10.60;99.90
39277;DHT22;63149;48.086;-1.606;2023-02-11T16:08:55;10.60;99.90
39277;DHT22;63149;48.086;-1.606;2023-02-11T16:11:26;10.60;99.90
39277;DHT22;63149;48.086;-1.606;2023-02-11T16:13:54;10.60;99.90
39277;DHT22;63149;48.086;-1.606;2023-02-11T16:16:24;10.60;99.90
39277;DHT22;63149;48.086;-1.606;2023-02-11T16:18:54;10.50;99.90
39277;DHT22;63149;48.086;-1.606;2023-02-11T16:21:28;10.50;99.90
39277;DHT22;63149;48.086;-1.606;2023-02-11T16:23:57;10.50;99.90
39277;DHT22;63149;48.086;-1.606;2023-02-11T16:26:29;10.50;99.90
39277;DHT22;63149;48.086;-1.606;2023-02-11T16:29:06;10.50;99.90
39277;DHT22;63149;48.086;-1.606;2023-02-11T16:31:35;10.50;99.90
39277;DHT22;63149;48.086;-1.606;2023-02-11T16:34:10;10.50;99.90
39277;DHT22;63149;48.086;-1.606;2023-02-11T16:36:37;10.40;99.90
39277;DHT22;63149;48.086;-1.606;2023-02-11T16:39:04;10.40;99.90
39277;DHT22;63149;48.086;-1.606;2023-02-11T16:41:33;10.40;99.90
39277;DHT22;63149;48.086;-1.606;2023-02-11T16:43:59;10.40;99.90
39277;DHT22;63149;48.086;-1.606;2023-02-11T16:46:27;10.40;99.90
39277;DHT22;63149;48.086;-1.606;2023-02-11T16:48:54;10.40;99.90
39277;DHT22;63149;48.086;-1.606;2023-02-11T16:51:22;10.40;99.90
39277;DHT22;63149;48.086;-1.606;2023-02-11T16:53:49;10.40;99.90
39277;DHT22;63149;48.086;-1.606;2023-02-11T16:56:17;10.30;99.90
39277;DHT22;63149;48.086;-1.606;2023-02-11T16:58:45;10.40;99.90
39277;DHT22;63149;48.086;-1.606;2023-02-11T17:01:12;10.30;99.90
39277;DHT22;63149;48.086;-1.606;2023-02-11T17:03:39;10.30;99.90
39277;DHT22;63149;48.086;-1.606;2023-02-11T17:06:09;10.30;99.90
39277;DHT22;63149;48.086;-1.606;2023-02-11T17:08:36;10.30;99.90
39277;DHT22;63149;48.086;-1.606;2023-02-11T17:11:04;10.30;99.90
39277;DHT22;63149;48.086;-1.606;2023-02-11T17:13:31;10.20;99.90
39277;DHT22;63149;48.086;-1.606;2023-02-11T17:16:00;10.20;99.90
39277;DHT22;63149;48.086;-1.606;2023-02-11T17:18:27;10.10;99.90
39277;DHT22;63149;48.086;-1.606;2023-02-11T17:20:54;10.10;99.90
39277;DHT22;63149;48.086;-1.606;2023-02-11T17:23:21;10.10;99.90
39277;DHT22;63149;48.086;-1.606;2023-02-11T17:25:54;10.10;99.90
39277;DHT22;63149;48.086;-1.606;2023-02-11T17:28:22;10.10;99.90
39277;DHT22;63149;48.086;-1.606;2023-02-11T17:30:49;10.00;99.90
39277;DHT22;63149;48.086;-1.606;2023-02-11T17:33:17;9.90;99.90
39277;DHT22;63149;48.086;-1.606;2023-02-11T17:35:45;9.90;99.90
39277;DHT22;63149;48.086;-1.606;2023-02-11T17:38:12;9.80;99.90
39277;DHT22;63149;48.086;-1.606;2023-02-11T17:40:39;9.80;99.90
39277;DHT22;63149;48.086;-1.606;2023-02-11T17:43:06;9.70;99.90
39277;DHT22;63149;48.086;-1.606;2023-02-11T17:45:33;9.70;99.90
39277;DHT22;63149;48.086;-1.606;2023-02-11T17:48:00;9.60;99.90
39277;DHT22;63149;48.086;-1.606;2023-02-11T17:50:28;9.50;99.90
39277;DHT22;63149;48.086;-1.606;2023-02-11T17:52:56;9.50;99.90
39277;DHT22;63149;48.086;-1.606;2023-02-11T17:55:23;9.50;99.90
39277;DHT22;63149;48.086;-1.606;2023-02-11T17:57:50;9.50;99.90
39277;DHT22;63149;48.086;-1.606;2023-02-11T18:00:18;9.40;99.90
39277;DHT22;63149;48.086;-1.606;2023-02-11T18:02:45;9.40;99.90
39277;DHT22;63149;48.086;-1.606;2023-02-11T18:05:12;9.30;99.90
39277;DHT22;63149;48.086;-1.606;2023-02-11T18:07:41;9.30;99.90
39277;DHT22;63149;48.086;-1.606;2023-02-11T18:10:09;9.20;99.90
39277;DHT22;63149;48.086;-1.606;2023-02-11T18:12:36;9.20;99.90
39277;DHT22;63149;48.086;-1.606;2023-02-11T18:15:03;9.20;99.90
39277;DHT22;63149;48.086;-1.606;2023-02-11T18:17:30;9.10;99.90
39277;DHT22;63149;48.086;-1.606;2023-02-11T18:19:57;9.10;99.90
39277;DHT22;63149;48.086;-1.606;2023-02-11T18:22:24;9.10;99.90
39277;DHT22;63149;48.086;-1.606;2023-02-11T18:24:53;9.00;99.90
39277;DHT22;63149;48.086;-1.606;2023-02-11T18:27:21;9.00;99.90
39277;DHT22;63149;48.086;-1.606;2023-02-11T18:29:48;9.00;99.90
39277;DHT22;63149;48.086;-1.606;2023-02-11T18:32:15;8.90;99.90
39277;DHT22;63149;48.086;-1.606;2023-02-11T18:34:42;8.90;99.90
39277;DHT22;63149;48.086;-1.606;2023-02-11T18:37:09;8.90;99.90
39277;DHT22;63149;48.086;-1.606;2023-02-11T18:39:37;8.80;99.90
39277;DHT22;63149;48.086;-1.606;2023-02-11T18:42:06;8.80;99.90
39277;DHT22;63149;48.086;-1.606;2023-02-11T18:44:33;8.70;99.90
39277;DHT22;63149;48.086;-1.606;2023-02-11T18:47:00;8.70;99.90
39277;DHT22;63149;48.086;-1.606;2023-02-11T18:49:27;8.70;99.90
39277;DHT22;63149;48.086;-1.606;2023-02-11T18:51:54;8.60;99.90
39277;DHT22;63149;48.086;-1.606;2023-02-11T18:54:23;8.60;99.90
39277;DHT22;63149;48.086;-1.606;2023-02-11T18:56:50;8.60;99.90
39277;DHT22;63149;48.086;-1.606;2023-02-11T18:59:18;8.50;99.90
39277;DHT22;63149;48.086;-1.606;2023-02-11T19:01:45;8.50;99.90
39277;DHT22;63149;48.086;-1.606;2023-02-11T19:04:12;8.40;99.90
39277;DHT22;63149;48.086;-1.606;2023-02-11T19:06:46;8.40;99.90
39277;DHT22;63149;48.086;-1.606;2023-02-11T19:09:15;8.40;99.90
39277;DHT22;63149;48.086;-1.606;2023-02-11T19:11:43;8.30;99.90
39277;DHT22;63149;48.086;-1.606;2023-02-11T19:14:14;8.30;99.90
39277;DHT22;63149;48.086;-1.606;2023-02-11T19:16:43;8.30;99.90
39277;DHT22;63149;48.086;-1.606;2023-02-11T19:19:10;8.20;99.90
39277;DHT22;63149;48.086;-1.606;2023-02-11T19:21:37;8.20;99.90
39277;DHT22;63149;48.086;-1.606;2023-02-11T19:24:06;8.10;99.90
39277;DHT22;63149;48.086;-1.606;2023-02-11T19:26:34;8.10;99.90
39277;DHT22;63149;48.086;-1.606;2023-02-11T19:29:02;8.10;99.90
39277;DHT22;63149;48.086;-1.606;2023-02-11T19:31:29;8.00;99.90
39277;DHT22;63149;48.086;-1.606;2023-02-11T19:33:58;7.90;99.90
39277;DHT22;63149;48.086;-1.606;2023-02-11T19:36:25;7.90;99.90
39277;DHT22;63149;48.086;-1.606;2023-02-11T19:38:52;7.80;99.90
39277;DHT22;63149;48.086;-1.606;2023-02-11T19:41:20;7.70;99.90
39277;DHT22;63149;48.086;-1.606;2023-02-11T19:43:48;7.70;99.90
39277;DHT22;63149;48.086;-1.606;2023-02-11T19:46:18;7.70;99.90
39277;DHT22;63149;48.086;-1.606;2023-02-11T19:48:46;7.70;99.90
39277;DHT22;63149;48.086;-1.606;2023-02-11T19:51:16;7.70;99.90
39277;DHT22;63149;48.086;-1.606;2023-02-11T19:53:44;7.60;99.90
39277;DHT22;63149;48.086;-1.606;2023-02-11T19:56:12;7.60;99.90
39277;DHT22;63149;48.086;-1.606;2023-02-11T19:58:40;7.60;99.90
39277;DHT22;63149;48.086;-1.606;2023-02-11T20:01:08;7.50;99.90
39277;DHT22;63149;48.086;-1.606;2023-02-11T20:03:35;7.50;99.90
39277;DHT22;63149;48.086;-1.606;2023-02-11T20:06:07;7.50;99.90
39277;DHT22;63149;48.086;-1.606;2023-02-11T20:08:36;7.40;99.90
39277;DHT22;63149;48.086;-1.606;2023-02-11T20:11:07;7.40;99.90
39277;DHT22;63149;48.086;-1.606;2023-02-11T20:13:35;7.30;99.90
39277;DHT22;63149;48.086;-1.606;2023-02-11T20:16:07;7.30;99.90
39277;DHT22;63149;48.086;-1.606;2023-02-11T20:18:35;7.30;99.90
39277;DHT22;63149;48.086;-1.606;2023-02-11T20:21:05;7.20;99.90
39277;DHT22;63149;48.086;-1.606;2023-02-11T20:23:32;7.10;99.90
39277;DHT22;63149;48.086;-1.606;2023-02-11T20:26:05;7.00;99.90
39277;DHT22;63149;48.086;-1.606;2023-02-11T20:28:32;7.00;99.90
39277;DHT22;63149;48.086;-1.606;2023-02-11T20:30:59;7.00;99.90
39277;DHT22;63149;48.086;-1.606;2023-02-11T20:33:26;7.00;99.90
39277;DHT22;63149;48.086;-1.606;2023-02-11T20:35:55;6.90;99.90
39277;DHT22;63149;48.086;-1.606;2023-02-11T20:38:22;6.90;99.90
39277;DHT22;63149;48.086;-1.606;2023-02-11T20:40:49;6.90;99.90
39277;DHT22;63149;48.086;-1.606;2023-02-11T20:43:18;6.80;99.90
39277;DHT22;63149;48.086;-1.606;2023-02-11T20:45:46;6.80;99.90
39277;DHT22;63149;48.086;-1.606;2023-02-11T20:48:13;6.70;99.90
39277;DHT22;63149;48.086;-1.606;2023-02-11T20:50:40;6.70;99.90
39277;DHT22;63149;48.086;-1.606;2023-02-11T20:53:07;6.70;99.90
39277;DHT22;63149;48.086;-1.606;2023-02-11T20:55:38;6.70;99.90
39277;DHT22;63149;48.086;-1.606;2023-02-11T20:58:06;6.70;99.90
39277;DHT22;63149;48.086;-1.606;2023-02-11T21:00:35;6.60;99.90
39277;DHT22;63149;48.086;-1.606;2023-02-11T21:03:03;6.60;99.90
39277;DHT22;63149;48.086;-1.606;2023-02-11T21:05:30;6.50;99.90
39277;DHT22;63149;48.086;-1.606;2023-02-11T21:07:57;6.50;99.90
39277;DHT22;63149;48.086;-1.606;2023-02-11T21:10:24;6.50;99.90
39277;DHT22;63149;48.086;-1.606;2023-02-11T21:12:52;6.50;99.90
39277;DHT22;63149;48.086;-1.606;2023-02-11T21:15:18;6.40;99.90
39277;DHT22;63149;48.086;-1.606;2023-02-11T21:17:49;6.50;99.90
39277;DHT22;63149;48.086;-1.606;2023-02-11T21:20:17;6.40;99.90
39277;DHT22;63149;48.086;-1.606;2023-02-11T21:22:44;6.40;99.90
39277;DHT22;63149;48.086;-1.606;2023-02-11T21:25:11;6.40;99.90
39277;DHT22;63149;48.086;-1.606;2023-02-11T21:27:38;6.30;99.90
39277;DHT22;63149;48.086;-1.606;2023-02-11T21:30:06;6.30;99.90
39277;DHT22;63149;48.086;-1.606;2023-02-11T21:32:33;6.30;99.90
39277;DHT22;63149;48.086;-1.606;2023-02-11T21:35:01;6.20;99.90
39277;DHT22;63149;48.086;-1.606;2023-02-11T21:37:28;6.20;99.90
39277;DHT22;63149;48.086;-1.606;2023-02-11T21:39:55;6.20;99.90
39277;DHT22;63149;48.086;-1.606;2023-02-11T21:42:22;6.20;99.90
39277;DHT22;63149;48.086;-1.606;2023-02-11T21:44:49;6.10;99.90
39277;DHT22;63149;48.086;-1.606;2023-02-11T21:47:16;6.10;99.90
39277;DHT22;63149;48.086;-1.606;2023-02-11T21:49:43;6.10;99.90
39277;DHT22;63149;48.086;-1.606;2023-02-11T21:52:11;6.10;99.90
39277;DHT22;63149;48.086;-1.606;2023-02-11T21:54:38;6.00;99.90
39277;DHT22;63149;48.086;-1.606;2023-02-11T21:57:05;6.10;99.90
39277;DHT22;63149;48.086;-1.606;2023-02-11T21:59:32;6.10;99.90
39277;DHT22;63149;48.086;-1.606;2023-02-11T22:01:58;6.10;99.90
39277;DHT22;63149;48.086;-1.606;2023-02-11T22:04:25;6.00;99.90
39277;DHT22;63149;48.086;-1.606;2023-02-11T22:06:52;6.00;99.90
39277;DHT22;63149;48.086;-1.606;2023-02-11T22:09:21;6.00;99.90
39277;DHT22;63149;48.086;-1.606;2023-02-11T22:11:48;6.00;99.90
39277;DHT22;63149;48.086;-1.606;2023-02-11T22:14:15;6.00;99.90
39277;DHT22;63149;48.086;-1.606;2023-02-11T22:16:44;6.00;99.90
39277;DHT22;63149;48.086;-1.606;2023-02-11T22:19:11;5.90;99.90
39277;DHT22;63149;48.086;-1.606;2023-02-11T22:21:39;5.90;99.90
39277;DHT22;63149;48.086;-1.606;2023-02-11T22:24:08;5.90;99.90
39277;DHT22;63149;48.086;-1.606;2023-02-11T22:26:36;5.90;99.90
39277;DHT22;63149;48.086;-1.606;2023-02-11T22:29:03;5.90;99.90
39277;DHT22;63149;48.086;-1.606;2023-02-11T22:31:32;5.80;99.90
39277;DHT22;63149;48.086;-1.606;2023-02-11T22:34:01;5.90;99.90
39277;DHT22;63149;48.086;-1.606;2023-02-11T22:36:30;5.80;99.90
39277;DHT22;63149;48.086;-1.606;2023-02-11T22:38:59;5.80;99.90
39277;DHT22;63149;48.086;-1.606;2023-02-11T22:41:27;5.80;99.90
39277;DHT22;63149;48.086;-1.606;2023-02-11T22:43:55;5.80;99.90
39277;DHT22;63149;48.086;-1.606;2023-02-11T22:46:22;5.80;99.90
39277;DHT22;63149;48.086;-1.606;2023-02-11T22:48:49;5.80;99.90
39277;DHT22;63149;48.086;-1.606;2023-02-11T22:51:17;5.70;99.90
39277;DHT22;63149;48.086;-1.606;2023-02-11T22:53:48;5.70;99.90
39277;DHT22;63149;48.086;-1.606;2023-02-11T22:56:15;5.70;99.90
39277;DHT22;63149;48.086;-1.606;2023-02-11T22:58:42;5.70;99.90
39277;DHT22;63149;48.086;-1.606;2023-02-11T23:01:11;5.70;99.90
39277;DHT22;63149;48.086;-1.606;2023-02-11T23:03:38;5.70;99.90